createdAt,value
2019-04-22T00:03:37.727Z,6.47
2019-04-22T00:09:04.976Z,6.60
2019-04-22T00:14:10.569Z,6.47
2019-04-22T00:19:20.773Z,6.15
2019-04-22T00:24:16.996Z,6.60
2019-04-22T00:29:44.351Z,6.75
2019-04-22T00:34:30.213Z,6.35
2019-04-22T00:50:14.559Z,6.42
2019-04-22T00:54:54.419Z,5.92
2019-04-22T00:59:57.247Z,6.42
2019-04-22T01:05:00.838Z,6.67
2019-04-22T01:10:06.634Z,6.37
2019-04-22T01:15:17.503Z,6.53
2019-04-22T01:20:43.577Z,6.17
2019-04-22T01:25:21.200Z,5.75
2019-04-22T01:30:14.734Z,5.70
2019-04-22T01:35:20.962Z,5.85
2019-04-22T01:40:39.348Z,5.45
2019-04-22T01:45:49.744Z,5.53
2019-04-22T01:50:43.167Z,5.72
2019-04-22T01:55:52.017Z,5.65
2019-04-22T02:01:14.729Z,5.80
2019-04-22T02:06:08.449Z,5.67
2019-04-22T02:11:07.896Z,5.37
2019-04-22T02:16:14.167Z,5.30
2019-04-22T02:21:17.027Z,5.20
2019-04-22T02:26:25.599Z,5.78
2019-04-22T02:36:36.380Z,5.37
2019-04-22T02:41:47.642Z,4.75
2019-04-22T02:52:15.754Z,4.92
2019-04-22T02:56:54.307Z,5.08
2019-04-22T03:02:09.972Z,5.53
2019-04-22T03:07:05.473Z,5.35
2019-04-22T03:17:23.254Z,4.85
2019-04-22T03:22:21.037Z,5.03
2019-04-22T03:27:26.744Z,4.70
2019-04-22T03:37:48.525Z,4.47
2019-04-22T03:42:56.090Z,4.42
2019-04-22T03:47:57.513Z,4.58
2019-04-22T03:53:06.215Z,4.80
2019-04-22T03:57:59.553Z,5.25
2019-04-22T04:03:07.203Z,4.70
2019-04-22T04:08:16.397Z,4.60
2019-04-22T04:13:20.419Z,4.55
2019-04-22T04:18:19.203Z,4.78
2019-04-22T04:33:38.954Z,4.03
2019-04-22T04:38:45.744Z,4.50
2019-04-22T04:43:56.373Z,3.58
2019-04-22T04:49:00.923Z,4.10
2019-04-22T04:54:05.656Z,4.08
2019-04-22T04:59:21.498Z,4.47
2019-04-22T05:14:18.987Z,4.05
2019-04-22T05:19:23.901Z,4.10
2019-04-22T05:30:00.115Z,4.40
2019-04-22T05:34:36.597Z,3.80
2019-04-22T05:39:35.943Z,3.62
2019-04-22T05:44:42.475Z,4.05
2019-04-22T05:49:45.851Z,4.37
2019-04-22T05:54:59.448Z,4.03
2019-04-22T05:59:59.619Z,4.03
2019-04-22T06:05:06.630Z,3.90
2019-04-22T06:10:11.659Z,3.80
2019-04-22T06:15:16.317Z,4.20
2019-04-22T06:20:15.901Z,3.85
2019-04-22T06:25:27.522Z,4.33
2019-04-22T06:30:36.620Z,4.22
2019-04-22T06:35:50.655Z,4.47
2019-04-22T06:45:43.846Z,4.35
2019-04-22T06:51:08.196Z,4.53
2019-04-22T06:56:14.307Z,4.00
2019-04-22T07:01:04.312Z,4.83
2019-04-22T07:06:07.957Z,4.67
2019-04-22T07:11:06.247Z,4.22
2019-04-22T07:16:20.330Z,4.90
2019-04-22T07:21:23.568Z,7.60
2019-04-22T07:26:27.556Z,10.08
2019-04-22T07:31:37.234Z,10.20
2019-04-22T07:41:47.541Z,18.40
2019-04-22T07:46:56.490Z,17.73
2019-04-22T07:51:49.488Z,17.65
2019-04-22T07:57:00.000Z,17.77
2019-04-22T08:02:04.457Z,17.30
2019-04-22T08:07:12.642Z,17.23
2019-04-22T08:12:12.005Z,15.80
2019-04-22T08:17:45.027Z,12.80
2019-04-22T08:22:24.025Z,11.40
2019-04-22T08:27:31.986Z,11.22
2019-04-22T08:32:37.977Z,10.88
2019-04-22T08:43:07.220Z,10.15
2019-04-22T08:47:47.916Z,9.95
2019-04-22T08:52:57.600Z,9.05
2019-04-22T08:58:16.544Z,8.20
2019-04-22T09:03:04.386Z,9.33
2019-04-22T09:08:14.228Z,9.05
2019-04-22T09:13:14.516Z,7.65
2019-04-22T09:18:23.194Z,8.78
2019-04-22T09:23:33.917Z,8.58
2019-04-22T09:28:35.743Z,6.92
2019-04-22T09:54:02.498Z,6.35
2019-04-22T10:04:21.856Z,5.97
2019-04-22T10:09:34.741Z,5.60
2019-04-22T10:14:18.942Z,7.75
2019-04-22T10:19:23.676Z,12.93
2019-04-22T10:24:30.012Z,14.38
2019-04-22T10:29:35.351Z,10.43
2019-04-22T10:34:26.269Z,8.63
2019-04-22T10:39:18.296Z,7.62
2019-04-22T10:44:23.536Z,8.00
2019-04-22T10:49:28.600Z,9.48
2019-04-22T10:54:33.550Z,8.63
2019-04-22T10:59:38.224Z,9.48
2019-04-22T11:04:41.931Z,9.03
2019-04-22T11:09:53.089Z,7.25
2019-04-22T11:14:51.644Z,8.45
2019-04-22T11:19:55.399Z,7.87
2019-04-22T11:25:01.299Z,7.47
2019-04-22T11:30:07.978Z,7.95
2019-04-22T11:35:11.915Z,6.70
2019-04-22T11:40:25.412Z,7.92
2019-04-22T11:45:21.825Z,7.20
2019-04-22T11:50:26.107Z,7.17
2019-04-22T11:55:30.892Z,8.40
2019-04-22T12:00:36.823Z,8.10
2019-04-22T12:05:41.624Z,6.83
2019-04-22T12:10:51.578Z,7.53
2019-04-22T12:15:51.160Z,6.50
2019-04-22T12:20:55.245Z,6.50
2019-04-22T12:26:04.266Z,6.92
2019-04-22T12:31:03.998Z,6.80
2019-04-22T12:36:08.666Z,6.55
2019-04-22T12:41:13.888Z,5.78
2019-04-22T12:46:18.523Z,7.15
2019-04-22T12:51:23.079Z,6.03
2019-04-22T12:56:27.859Z,5.58
2019-04-22T13:01:31.295Z,6.05
2019-04-22T13:06:35.584Z,5.47
2019-04-22T13:11:40.748Z,7.10
2019-04-22T13:16:44.903Z,7.75
2019-04-22T13:21:48.919Z,24.18
2019-04-22T13:26:53.016Z,23.35
2019-04-22T13:31:56.503Z,13.80
2019-04-22T13:37:01.142Z,13.45
2019-04-22T13:42:09.902Z,16.57
2019-04-22T13:47:22.239Z,19.77
2019-04-22T13:52:49.058Z,22.80
2019-04-22T13:57:37.838Z,17.37
2019-04-22T14:02:26.760Z,21.25
2019-04-22T14:07:30.747Z,15.65
2019-04-22T14:12:34.927Z,11.73
2019-04-22T14:17:38.955Z,15.13
2019-04-22T14:22:42.492Z,12.95
2019-04-22T14:27:54.827Z,13.10
2019-04-22T14:32:51.265Z,12.98
2019-04-22T14:37:56.336Z,13.08
2019-04-22T14:43:23.203Z,13.85
2019-04-22T14:48:31.620Z,11.20
2019-04-22T14:53:31.013Z,11.15
2019-04-22T14:58:15.293Z,9.20
2019-04-22T15:03:19.686Z,8.08
2019-04-22T15:08:24.671Z,7.72
2019-04-22T15:13:29.434Z,6.33
2019-04-22T15:18:35.764Z,7.08
2019-04-22T15:23:40.462Z,7.03
2019-04-22T15:28:45.164Z,6.40
2019-04-22T15:33:50.268Z,7.50
2019-04-22T15:38:55.102Z,6.33
2019-04-22T15:43:59.688Z,7.30
2019-04-22T15:49:04.257Z,6.92
2019-04-22T15:54:07.811Z,7.33
2019-04-22T15:59:31.243Z,6.80
2019-04-22T16:04:16.969Z,6.70
2019-04-22T16:09:20.693Z,8.23
2019-04-22T16:14:32.853Z,7.17
2019-04-22T16:19:30.793Z,6.58
2019-04-22T16:24:36.286Z,6.30
2019-04-22T16:29:41.108Z,7.28
2019-04-22T16:34:45.773Z,7.42
2019-04-22T16:39:51.898Z,7.40
2019-04-22T16:44:55.470Z,7.00
2019-04-22T16:49:59.660Z,6.95
2019-04-22T16:55:03.615Z,6.42
2019-04-22T17:00:11.203Z,7.15
2019-04-22T17:05:25.494Z,5.40
2019-04-22T17:10:29.470Z,5.45
2019-04-22T17:15:33.410Z,8.90
2019-04-22T17:20:37.112Z,7.60
2019-04-22T17:25:40.599Z,9.93
2019-04-22T17:30:45.598Z,21.15
2019-04-22T17:35:50.310Z,24.92
2019-04-22T17:41:08.253Z,22.35
2019-04-22T17:46:19.588Z,23.40
2019-04-22T17:56:33.728Z,25.57
2019-04-22T18:01:41.709Z,21.85
2019-04-22T18:06:52.785Z,21.65
2019-04-22T18:11:51.262Z,18.90
2019-04-22T18:16:51.940Z,17.75
2019-04-22T18:21:54.537Z,16.73
2019-04-22T18:27:15.877Z,17.52
2019-04-22T18:31:58.106Z,15.95
2019-04-22T18:37:09.332Z,15.30
2019-04-22T18:42:09.476Z,15.40
2019-04-22T18:47:18.660Z,14.78
2019-04-22T18:52:48.027Z,13.43
2019-04-22T18:57:59.876Z,12.33
2019-04-22T19:02:56.953Z,10.60
2019-04-22T19:08:18.319Z,9.38
2019-04-22T19:18:29.730Z,8.48
2019-04-22T19:23:44.990Z,8.43
2019-04-22T19:28:49.396Z,8.73
2019-04-22T19:33:42.668Z,8.38
2019-04-22T19:38:34.085Z,8.33
2019-04-22T19:43:53.246Z,7.15
2019-04-22T19:48:56.502Z,7.20
2019-04-22T19:54:01.372Z,7.97
2019-04-22T19:58:58.586Z,7.62
2019-04-22T20:04:16.230Z,7.53
2019-04-22T20:09:26.964Z,8.35
2019-04-22T20:14:21.902Z,7.65
2019-04-22T20:19:33.789Z,7.85
2019-04-22T20:24:20.689Z,8.05
2019-04-22T20:29:41.836Z,7.67
2019-04-22T20:34:47.494Z,7.65
2019-04-22T20:39:46.799Z,8.53
2019-04-22T20:44:56.738Z,7.87
2019-04-22T20:50:02.250Z,7.55
2019-04-22T20:55:03.400Z,6.97
2019-04-22T21:00:06.437Z,6.67
2019-04-22T21:05:01.899Z,7.17
2019-04-22T21:10:15.907Z,6.45
2019-04-22T21:15:32.559Z,6.35
2019-04-22T21:20:41.435Z,6.62
2019-04-22T21:25:29.209Z,6.42
2019-04-22T21:30:45.260Z,6.85
2019-04-22T21:35:59.621Z,7.78
2019-04-22T21:40:56.686Z,7.47
2019-04-22T21:46:04.537Z,7.28
2019-04-22T21:51:08.692Z,6.03
2019-04-22T21:56:31.771Z,6.78
2019-04-22T22:06:28.371Z,6.33
2019-04-22T22:11:41.764Z,6.10
2019-04-22T22:16:38.669Z,6.10
2019-04-22T22:21:58.660Z,6.28
2019-04-22T22:26:57.117Z,6.47
2019-04-22T22:32:04.833Z,5.65
2019-04-22T22:37:02.026Z,6.28
2019-04-22T22:41:52.015Z,6.55
2019-04-22T22:47:16.289Z,5.80
2019-04-22T22:52:48.790Z,5.60
2019-04-22T23:02:30.249Z,5.75
2019-04-22T23:07:42.797Z,5.90
2019-04-22T23:13:00.386Z,6.67
2019-04-22T23:17:29.899Z,5.85
2019-04-22T23:22:51.098Z,5.45
2019-04-22T23:28:00.308Z,5.35
2019-04-22T23:33:05.801Z,5.90
2019-04-22T23:38:07.834Z,5.45
2019-04-22T23:43:21.922Z,5.17
2019-04-22T23:48:14.119Z,4.75
2019-04-22T23:53:42.585Z,4.47
2019-04-22T23:58:48.131Z,5.50
